Terminal Aerodrome Forecast
Issued by NWS Charleston, SC

Home | Current Version | Previous Version | Text Only | Print | Product List | Glossary On
Versions: 1 2 3 4 5 6 7 8 9 10 11 12 13 14
930
FTUS42 KCHS 231121
TAFSAV
TAF
KSAV 231121Z 2312/2412 11014G22KT 5SM SHRA BR SCT010 OVC015
     FM231400 12016G24KT 5SM SHRA BR SCT008 OVC010
     FM231900 13018G26KT 6SM -SHRA VCTS SCT008 SCT010CB OVC015
     FM240200 16010G15KT P6SM SCT008 OVC010
     FM240600 19007KT P6SM OVC008=

USA.gov is the U.S. government's official web portal to all federal, state and local government web resources and services.